Time;durP1;ratioP1;P1;durP2;ratioP2;P2;SDS_P1;SDS_P2;PMS_P1;PMS_P2;Temp;Humidity;BMP_temperature;BMP_pressure;BME280_temperature;BME280_humidity;BME280_pressure;Samples;Min_cycle;Max_cycle;Signal;HPM_P1;HPM_P2
2023/11/18 00:00:10;;;;;;;33.87;19.50;;;3.20;99.90;;;;;;5078004;28;20468;-62
2023/11/18 00:02:38;;;;;;;29.97;20.60;;;3.30;99.90;;;;;;5078592;28;20462;-61
2023/11/18 00:05:08;;;;;;;28.97;19.70;;;3.30;99.90;;;;;;5077510;28;20457;-63
2023/11/18 00:07:36;;;;;;;31.70;20.50;;;3.30;99.90;;;;;;5077869;28;20576;-62
2023/11/18 00:10:04;;;;;;;30.97;19.07;;;3.30;99.90;;;;;;5078210;28;20797;-61
2023/11/18 00:12:31;;;;;;;29.27;17.93;;;3.30;99.90;;;;;;5077328;28;20584;-61
2023/11/18 00:14:59;;;;;;;26.97;19.13;;;3.20;99.90;;;;;;5078229;28;20461;-62
2023/11/18 00:17:28;;;;;;;30.97;19.93;;;3.10;99.90;;;;;;5076939;28;20850;-63
2023/11/18 00:19:55;;;;;;;28.63;18.47;;;3.10;99.90;;;;;;5077771;28;20523;-62
2023/11/18 00:22:23;;;;;;;32.10;18.20;;;3.00;99.90;;;;;;5077829;28;20457;-61
2023/11/18 00:24:50;;;;;;;28.03;18.87;;;2.90;99.90;;;;;;5077938;28;20458;-62
2023/11/18 00:27:18;;;;;;;30.47;19.97;;;2.90;99.90;;;;;;5077800;28;20530;-62
2023/11/18 00:29:45;;;;;;;27.10;18.50;;;2.80;99.90;;;;;;5077633;28;20804;-62
2023/11/18 00:32:13;;;;;;;25.90;19.77;;;2.70;99.90;;;;;;5077481;28;20493;-62
2023/11/18 00:34:41;;;;;;;31.83;20.17;;;2.70;99.90;;;;;;5077873;28;20457;-62
2023/11/18 00:37:09;;;;;;;30.77;19.43;;;2.70;99.90;;;;;;5077285;28;20464;-62
2023/11/18 00:39:37;;;;;;;28.40;19.00;;;2.70;99.90;;;;;;5077414;28;20462;-62
2023/11/18 00:42:05;;;;;;;26.97;18.87;;;2.60;99.90;;;;;;5077768;28;20457;-62
2023/11/18 00:44:32;;;;;;;29.67;20.83;;;2.60;99.90;;;;;;5077835;28;20491;-62
2023/11/18 00:47:00;;;;;;;30.13;20.30;;;2.60;99.90;;;;;;5077431;28;20468;-61
2023/11/18 00:49:28;;;;;;;29.20;19.97;;;2.60;99.90;;;;;;5077365;28;20929;-61
2023/11/18 00:51:57;;;;;;;33.00;23.60;;;2.60;99.90;;;;;;5077447;28;20975;-62
2023/11/18 00:54:24;;;;;;;31.80;23.10;;;2.50;99.90;;;;;;5077404;28;20458;-61
2023/11/18 00:56:51;;;;;;;29.70;20.37;;;2.60;99.90;;;;;;5077417;28;20548;-61
2023/11/18 00:59:19;;;;;;;26.90;19.90;;;2.60;99.90;;;;;;5077347;28;20798;-61
2023/11/18 01:01:48;;;;;;;30.20;19.27;;;2.50;99.90;;;;;;5077764;28;20461;-62
2023/11/18 01:04:16;;;;;;;29.30;19.40;;;2.50;99.90;;;;;;5077499;28;20484;-62
2023/11/18 01:06:44;;;;;;;30.53;21.07;;;2.50;99.90;;;;;;5076936;28;20837;-62
2023/11/18 01:09:12;;;;;;;28.30;18.87;;;2.50;99.90;;;;;;5077138;28;20760;-62
2023/11/18 01:11:40;;;;;;;31.90;21.80;;;2.60;99.90;;;;;;5076888;28;20466;-62
2023/11/18 01:14:07;;;;;;;31.60;20.97;;;2.60;99.90;;;;;;5076963;28;20490;-62
2023/11/18 01:16:35;;;;;;;29.43;20.07;;;2.60;99.90;;;;;;5077288;28;20491;-62
2023/11/18 01:19:08;;;;;;;29.27;20.77;;;2.60;99.90;;;;;;5076687;28;20458;-63
2023/11/18 01:21:37;;;;;;;26.70;18.90;;;2.50;99.90;;;;;;5077328;28;20748;-62
2023/11/18 01:24:06;;;;;;;27.00;18.87;;;2.40;99.90;;;;;;5079979;28;20890;-62
2023/11/18 01:26:36;;;;;;;27.00;18.10;;;2.30;99.90;;;;;;5081568;28;20552;-62
2023/11/18 01:29:04;;;;;;;26.60;18.57;;;2.40;99.90;;;;;;5080614;28;20750;-62
2023/11/18 01:31:31;;;;;;;24.27;18.60;;;2.30;99.90;;;;;;5081031;28;20465;-61
2023/11/18 01:33:59;;;;;;;23.60;18.10;;;2.30;99.90;;;;;;5080865;28;20497;-62
2023/11/18 01:36:27;;;;;;;25.93;18.67;;;2.30;99.90;;;;;;5081108;28;20464;-62
2023/11/18 01:38:55;;;;;;;28.10;19.37;;;2.30;99.90;;;;;;5080672;28;20476;-62
2023/11/18 01:41:22;;;;;;;24.23;17.07;;;2.20;99.90;;;;;;5080581;28;20465;-62
2023/11/18 01:43:50;;;;;;;26.10;17.53;;;2.20;99.90;;;;;;5081235;28;20457;-62
2023/11/18 01:46:19;;;;;;;29.23;19.00;;;2.20;99.90;;;;;;5081210;28;20461;-61
2023/11/18 01:48:47;;;;;;;22.77;17.23;;;2.20;99.90;;;;;;5080997;28;20461;-61
2023/11/18 01:51:15;;;;;;;25.60;18.10;;;2.30;99.90;;;;;;5080998;28;20461;-62
2023/11/18 01:53:45;;;;;;;28.20;19.17;;;2.30;99.90;;;;;;5080685;28;20485;-62
2023/11/18 01:56:12;;;;;;;27.20;16.53;;;2.30;99.90;;;;;;5080870;28;20599;-61
2023/11/18 01:58:40;;;;;;;22.37;17.60;;;2.30;99.90;;;;;;5080517;28;20453;-62
2023/11/18 02:01:10;;;;;;;22.80;16.67;;;2.30;99.90;;;;;;5080225;28;20821;-61
2023/11/18 02:03:37;;;;;;;25.03;18.33;;;2.20;99.90;;;;;;5080379;28;20555;-61
2023/11/18 02:06:06;;;;;;;24.80;16.70;;;2.10;99.90;;;;;;5079979;28;20500;-62
2023/11/18 02:08:36;;;;;;;27.60;18.23;;;2.20;99.90;;;;;;5081015;28;20463;-61
2023/11/18 02:11:15;;;;;;;22.03;17.30;;;2.30;99.90;;;;;;5080518;28;20464;-61
2023/11/18 02:13:46;;;;;;;25.10;17.63;;;2.30;99.90;;;;;;5080191;28;20528;-61
2023/11/18 02:16:17;;;;;;;24.73;16.90;;;2.40;99.90;;;;;;5080433;28;20495;-61
2023/11/18 02:18:45;;;;;;;25.53;18.63;;;2.40;99.90;;;;;;5080505;28;20453;-62
2023/11/18 02:21:14;;;;;;;23.30;16.83;;;2.40;99.90;;;;;;5080709;28;20540;-61
2023/11/18 02:23:42;;;;;;;25.77;18.60;;;2.40;99.90;;;;;;5079979;28;20463;-61
2023/11/18 02:26:11;;;;;;;25.63;17.50;;;2.40;99.90;;;;;;5080639;28;20855;-61
2023/11/18 02:28:38;;;;;;;26.93;17.53;;;2.40;99.90;;;;;;5080438;28;20503;-61
2023/11/18 02:31:12;;;;;;;25.57;17.63;;;2.40;99.90;;;;;;5079198;28;20464;-61
2023/11/18 02:33:50;;;;;;;22.83;16.63;;;2.40;99.90;;;;;;5079515;28;20543;-61
2023/11/18 02:36:25;;;;;;;30.93;19.23;;;2.40;99.90;;;;;;5079696;28;20465;-62
2023/11/18 02:38:56;;;;;;;25.80;18.87;;;2.50;99.90;;;;;;5080144;28;20456;-62
2023/11/18 02:41:29;;;;;;;25.63;18.07;;;2.50;99.90;;;;;;5079931;28;20763;-62
2023/11/18 02:43:58;;;;;;;24.30;18.23;;;2.50;99.90;;;;;;5079769;28;20453;-62
2023/11/18 02:46:27;;;;;;;27.57;19.67;;;2.50;99.90;;;;;;5079732;28;20457;-62
2023/11/18 02:48:55;;;;;;;24.70;18.30;;;2.60;99.90;;;;;;5079847;28;20508;-62
2023/11/18 02:51:22;;;;;;;22.57;17.90;;;2.60;99.90;;;;;;5079310;28;20459;-62
2023/11/18 02:53:50;;;;;;;26.10;18.70;;;2.60;99.90;;;;;;5079607;28;20525;-61
2023/11/18 02:56:18;;;;;;;25.90;17.97;;;2.60;99.90;;;;;;5079579;28;20471;-62
2023/11/18 02:58:47;;;;;;;24.77;19.30;;;2.60;99.90;;;;;;5079463;28;20465;-62
2023/11/18 03:01:14;;;;;;;25.13;19.10;;;2.70;99.90;;;;;;5079664;28;20524;-62
2023/11/18 03:03:42;;;;;;;24.27;17.23;;;2.70;99.90;;;;;;5078973;28;20547;-62
2023/11/18 03:06:11;;;;;;;23.67;17.50;;;2.70;99.90;;;;;;5079209;28;20840;-61
2023/11/18 03:08:40;;;;;;;26.73;18.73;;;2.80;99.90;;;;;;5078621;28;20458;-61
2023/11/18 03:11:08;;;;;;;25.40;18.90;;;2.80;99.90;;;;;;5078752;28;20461;-61
2023/11/18 03:13:36;;;;;;;23.77;17.47;;;2.90;99.90;;;;;;5079481;28;20488;-61
2023/11/18 03:16:11;;;;;;;25.10;17.27;;;2.80;99.90;;;;;;5079325;28;20476;-60
2023/11/18 03:18:40;;;;;;;24.63;17.00;;;2.80;99.90;;;;;;5079523;28;20554;-61
2023/11/18 03:21:12;;;;;;;24.70;16.97;;;2.80;99.90;;;;;;5079138;28;20454;-61
2023/11/18 03:23:40;;;;;;;23.43;15.57;;;2.80;99.90;;;;;;5079240;28;20462;-61
2023/11/18 03:26:08;;;;;;;24.50;17.13;;;2.80;99.90;;;;;;5078903;28;20465;-61
2023/11/18 03:28:36;;;;;;;23.30;17.07;;;2.90;99.90;;;;;;5079033;28;20512;-61
2023/11/18 03:31:05;;;;;;;23.57;17.00;;;2.80;99.90;;;;;;5078387;28;20461;-61
2023/11/18 03:33:32;;;;;;;21.70;15.83;;;2.80;99.90;;;;;;5078724;28;20493;-61
2023/11/18 03:35:59;;;;;;;22.63;15.67;;;2.80;99.90;;;;;;5078894;28;20480;-61
2023/11/18 03:38:28;;;;;;;24.90;16.77;;;2.70;99.90;;;;;;5078907;28;20556;-61
2023/11/18 03:40:56;;;;;;;21.87;15.80;;;2.80;99.90;;;;;;5078907;28;20556;-61
2023/11/18 03:43:23;;;;;;;22.37;14.53;;;2.80;99.90;;;;;;5078308;28;20497;-61
2023/11/18 03:45:52;;;;;;;22.90;15.40;;;2.80;99.90;;;;;;5078123;28;20497;-61
2023/11/18 03:48:20;;;;;;;22.83;15.87;;;2.80;99.90;;;;;;5078014;28;20461;-61
2023/11/18 03:50:48;;;;;;;21.83;15.30;;;2.80;99.90;;;;;;5078274;28;20476;-61
2023/11/18 03:53:15;;;;;;;22.80;17.00;;;2.80;99.90;;;;;;5077974;28;20503;-61
2023/11/18 03:55:42;;;;;;;25.10;16.53;;;2.70;99.90;;;;;;5078663;28;20724;-61
2023/11/18 03:58:09;;;;;;;20.83;15.70;;;2.70;99.90;;;;;;5078429;28;20548;-61
2023/11/18 04:00:37;;;;;;;22.90;15.40;;;2.70;99.90;;;;;;5078323;28;20972;-61
2023/11/18 04:03:07;;;;;;;22.80;16.13;;;2.70;99.90;;;;;;5077838;28;20457;-62
2023/11/18 04:05:37;;;;;;;22.90;17.00;;;2.70;99.90;;;;;;5077919;28;20523;-61
2023/11/18 04:08:05;;;;;;;23.97;17.13;;;2.70;99.90;;;;;;5077928;28;20527;-61
2023/11/18 04:10:32;;;;;;;26.07;16.37;;;2.70;99.90;;;;;;5078184;28;20464;-61
2023/11/18 04:12:59;;;;;;;20.57;14.77;;;2.70;99.90;;;;;;5077434;28;20514;-62
2023/11/18 04:15:26;;;;;;;21.30;14.57;;;2.70;99.90;;;;;;5077823;28;20493;-61
2023/11/18 04:17:54;;;;;;;22.37;16.00;;;2.70;99.90;;;;;;5077534;28;20560;-62
2023/11/18 04:20:21;;;;;;;18.13;14.07;;;2.70;99.90;;;;;;5077505;28;20966;-62
2023/11/18 04:22:50;;;;;;;20.27;15.57;;;2.70;99.90;;;;;;5077637;28;20461;-62
2023/11/18 04:25:17;;;;;;;24.30;15.43;;;2.70;99.90;;;;;;5077784;28;20479;-62
2023/11/18 04:27:44;;;;;;;26.03;16.97;;;2.70;99.90;;;;;;5078030;28;20461;-61
2023/11/18 04:30:12;;;;;;;24.60;16.70;;;2.70;99.90;;;;;;5078038;28;20461;-61
2023/11/18 04:32:42;;;;;;;25.83;17.50;;;2.70;99.90;;;;;;5077762;28;20461;-61
2023/11/18 04:35:11;;;;;;;24.43;17.20;;;2.70;99.90;;;;;;5077204;28;20517;-61
2023/11/18 04:37:42;;;;;;;23.90;17.80;;;2.80;99.90;;;;;;5077321;28;20501;-61
2023/11/18 04:40:12;;;;;;;23.10;17.60;;;2.80;99.90;;;;;;5077980;28;20472;-61
2023/11/18 04:42:40;;;;;;;22.53;16.43;;;2.90;99.90;;;;;;5076747;28;20504;-62
2023/11/18 04:45:09;;;;;;;23.33;17.13;;;2.90;99.90;;;;;;5076955;28;20494;-61
2023/11/18 04:47:38;;;;;;;25.73;17.90;;;2.90;99.90;;;;;;5077670;28;20806;-62
2023/11/18 04:50:06;;;;;;;23.07;16.90;;;2.90;99.90;;;;;;5077575;28;20458;-61
2023/11/18 04:52:34;;;;;;;24.80;16.67;;;3.00;99.90;;;;;;5077287;28;20875;-61
2023/11/18 04:55:02;;;;;;;22.77;16.57;;;2.90;99.90;;;;;;5075439;28;20940;-62
2023/11/18 04:57:30;;;;;;;26.20;17.27;;;2.80;99.90;;;;;;5076405;28;20522;-61
2023/11/18 04:59:58;;;;;;;26.83;20.83;;;2.90;99.90;;;;;;5076995;28;20472;-61
2023/11/18 05:02:25;;;;;;;22.30;17.63;;;2.90;99.90;;;;;;5077754;28;20714;-61
2023/11/18 05:04:52;;;;;;;21.90;17.50;;;2.90;99.90;;;;;;5077821;28;20503;-61
2023/11/18 05:07:19;;;;;;;28.97;20.60;;;3.00;99.90;;;;;;5076804;28;20553;-60
2023/11/18 05:09:48;;;;;;;25.77;18.77;;;3.00;99.90;;;;;;5077318;28;20475;-62
2023/11/18 05:12:16;;;;;;;25.90;18.13;;;3.00;99.90;;;;;;5076982;28;20493;-61
2023/11/18 05:14:44;;;;;;;24.17;17.17;;;3.00;99.90;;;;;;5077258;28;20485;-61
2023/11/18 05:17:12;;;;;;;25.33;18.50;;;2.90;99.90;;;;;;5076858;28;20461;-61
2023/11/18 05:19:39;;;;;;;25.77;17.07;;;2.90;99.90;;;;;;5076919;28;20850;-61
2023/11/18 05:22:06;;;;;;;25.57;18.93;;;2.90;99.90;;;;;;5077188;28;20536;-60
2023/11/18 05:24:33;;;;;;;27.83;18.87;;;3.00;99.90;;;;;;5077392;28;20555;-60
2023/11/18 05:27:01;;;;;;;27.60;18.03;;;2.90;99.90;;;;;;5076552;28;20467;-60
2023/11/18 05:29:28;;;;;;;25.83;20.00;;;2.90;99.90;;;;;;5076635;28;20587;-61
2023/11/18 05:31:57;;;;;;;25.17;18.60;;;2.90;99.90;;;;;;5076675;28;20556;-61
2023/11/18 05:34:24;;;;;;;25.60;18.37;;;2.90;99.90;;;;;;5077282;28;20489;-60
2023/11/18 05:36:54;;;;;;;29.23;19.77;;;2.90;99.90;;;;;;5077099;28;20457;-60
2023/11/18 05:39:21;;;;;;;26.30;18.67;;;2.90;99.90;;;;;;5077453;28;20460;-60
2023/11/18 05:41:49;;;;;;;26.23;18.57;;;3.00;99.90;;;;;;5076669;28;20457;-60
2023/11/18 05:44:19;;;;;;;26.67;18.60;;;3.00;99.90;;;;;;5076825;28;20515;-60
2023/11/18 05:46:47;;;;;;;27.83;19.43;;;3.00;99.90;;;;;;5077345;28;20512;-60
2023/11/18 05:49:15;;;;;;;29.83;20.37;;;3.00;99.90;;;;;;5076782;28;20762;-60
2023/11/18 05:51:43;;;;;;;31.30;20.70;;;3.10;99.90;;;;;;5076634;28;20458;-60
2023/11/18 05:54:10;;;;;;;28.53;19.80;;;3.10;99.90;;;;;;5076846;28;20485;-60
2023/11/18 05:56:38;;;;;;;28.43;17.90;;;3.10;99.90;;;;;;5076917;28;20579;-60
2023/11/18 05:59:05;;;;;;;29.73;20.73;;;3.10;99.90;;;;;;5075964;28;20453;-60
2023/11/18 06:01:33;;;;;;;28.70;20.30;;;3.20;99.90;;;;;;5076463;28;20508;-60
2023/11/18 06:04:01;;;;;;;31.57;20.37;;;3.20;99.90;;;;;;5076696;28;20481;-61
2023/11/18 06:06:31;;;;;;;29.33;20.17;;;3.20;99.90;;;;;;5076377;28;21025;-60
2023/11/18 06:09:04;;;;;;;29.80;21.00;;;3.20;99.90;;;;;;5076625;28;20457;-60
2023/11/18 06:11:32;;;;;;;31.43;20.87;;;3.30;99.90;;;;;;5079320;28;20464;-60
2023/11/18 06:13:59;;;;;;;27.87;20.20;;;3.30;99.90;;;;;;5080399;28;20489;-60
2023/11/18 06:16:27;;;;;;;28.33;19.60;;;3.30;99.90;;;;;;5080381;28;20559;-60
2023/11/18 06:18:55;;;;;;;26.93;18.80;;;3.20;99.90;;;;;;5079714;28;20515;-60
2023/11/18 06:21:28;;;;;;;25.07;18.77;;;3.20;99.90;;;;;;5079663;28;20489;-60
2023/11/18 06:23:56;;;;;;;28.73;18.77;;;3.20;99.90;;;;;;5079681;28;20457;-61
2023/11/18 06:26:24;;;;;;;24.67;18.40;;;3.20;99.90;;;;;;5080111;28;20921;-60
2023/11/18 06:28:51;;;;;;;26.07;18.23;;;3.30;99.90;;;;;;5079798;28;20461;-60
2023/11/18 06:31:18;;;;;;;30.10;18.70;;;3.40;99.90;;;;;;5079571;28;20464;-60
2023/11/18 06:33:47;;;;;;;28.43;18.57;;;3.40;99.90;;;;;;5079903;28;20812;-61
2023/11/18 06:36:18;;;;;;;28.17;19.10;;;3.50;99.90;;;;;;5080007;28;20778;-61
2023/11/18 06:38:46;;;;;;;26.27;18.27;;;3.50;99.90;;;;;;5078794;28;20933;-61
2023/11/18 06:41:16;;;;;;;51.60;30.17;;;3.60;99.90;;;;;;5077947;28;20460;-61
2023/11/18 06:43:56;;;;;;;38.30;26.00;;;3.60;99.90;;;;;;5077696;28;20935;-61
2023/11/18 06:46:25;;;;;;;29.73;21.57;;;3.60;99.90;;;;;;5077979;28;20461;-60
2023/11/18 06:48:54;;;;;;;31.60;23.30;;;3.70;99.90;;;;;;5078224;28;20457;-62
2023/11/18 06:51:23;;;;;;;34.40;27.40;;;3.70;99.90;;;;;;5078057;28;20496;-62
2023/11/18 06:53:51;;;;;;;34.40;25.80;;;3.70;99.90;;;;;;5078912;28;20800;-61
2023/11/18 06:56:19;;;;;;;28.93;21.33;;;3.70;99.90;;;;;;5079430;28;20909;-61
2023/11/18 06:58:47;;;;;;;28.20;21.07;;;3.70;99.90;;;;;;5079412;28;20857;-61
2023/11/18 07:01:14;;;;;;;29.23;20.07;;;3.70;99.90;;;;;;5079125;28;20770;-61
2023/11/18 07:03:42;;;;;;;28.43;19.30;;;3.80;99.90;;;;;;5079148;28;20457;-61
2023/11/18 07:06:10;;;;;;;25.47;18.80;;;3.80;99.90;;;;;;5078902;28;20973;-61
2023/11/18 07:08:37;;;;;;;25.80;17.70;;;3.80;99.90;;;;;;5078892;28;20541;-61
2023/11/18 07:11:05;;;;;;;27.23;20.03;;;3.80;99.90;;;;;;5078316;28;20545;-61
2023/11/18 07:13:34;;;;;;;26.87;17.93;;;3.80;99.90;;;;;;5078937;28;20469;-61
2023/11/18 07:16:03;;;;;;;24.53;17.80;;;3.80;99.90;;;;;;5079025;28;20503;-61
2023/11/18 07:18:31;;;;;;;30.20;19.50;;;3.90;99.90;;;;;;5079018;28;20462;-61
2023/11/18 07:20:59;;;;;;;29.20;18.90;;;3.90;99.90;;;;;;5078832;28;20457;-61
2023/11/18 07:23:27;;;;;;;29.47;19.83;;;4.00;99.90;;;;;;5078691;28;20507;-62
2023/11/18 07:25:54;;;;;;;27.27;18.13;;;4.00;99.90;;;;;;5078874;28;20457;-61
2023/11/18 07:28:22;;;;;;;27.80;17.37;;;4.00;99.90;;;;;;5079016;28;20461;-62
2023/11/18 07:30:51;;;;;;;26.57;19.07;;;4.10;99.90;;;;;;5078850;28;20858;-62
2023/11/18 07:33:18;;;;;;;26.57;18.70;;;4.20;99.90;;;;;;5078672;28;20468;-62
2023/11/18 07:35:47;;;;;;;26.00;18.37;;;4.20;99.90;;;;;;5078054;28;20491;-63
2023/11/18 07:38:15;;;;;;;25.03;19.07;;;4.30;99.90;;;;;;5078833;28;20461;-62
2023/11/18 07:40:45;;;;;;;27.20;18.40;;;4.30;99.90;;;;;;5077739;28;20886;-62
2023/11/18 07:43:12;;;;;;;24.67;17.10;;;4.30;99.90;;;;;;5078233;28;20469;-62
2023/11/18 07:45:42;;;;;;;26.30;19.93;;;4.40;99.90;;;;;;5078539;28;20540;-62
2023/11/18 07:48:11;;;;;;;26.33;18.90;;;4.50;99.90;;;;;;5078262;28;20468;-62
2023/11/18 07:50:41;;;;;;;23.57;17.63;;;4.50;99.90;;;;;;5077648;28;20464;-63
2023/11/18 07:53:09;;;;;;;22.70;17.67;;;4.60;99.90;;;;;;5077479;28;20650;-62
2023/11/18 07:55:39;;;;;;;22.27;16.43;;;4.60;99.90;;;;;;5078273;28;20777;-61
2023/11/18 07:58:10;;;;;;;25.60;17.93;;;4.70;99.90;;;;;;5078304;28;20481;-62
2023/11/18 08:00:38;;;;;;;21.97;16.27;;;4.70;99.90;;;;;;5078088;28;20568;-62
2023/11/18 08:03:11;;;;;;;23.90;16.23;;;4.80;99.90;;;;;;5078404;28;20840;-61
2023/11/18 08:05:40;;;;;;;21.90;15.13;;;4.80;99.90;;;;;;5078245;28;20464;-63
2023/11/18 08:08:08;;;;;;;25.47;17.00;;;4.90;99.90;;;;;;5077957;28;20449;-62
2023/11/18 08:10:37;;;;;;;23.60;16.47;;;4.90;99.90;;;;;;5078225;28;20453;-62
2023/11/18 08:13:06;;;;;;;20.50;14.70;;;4.90;99.90;;;;;;5077238;28;20511;-63
2023/11/18 08:15:34;;;;;;;18.20;14.87;;;5.00;99.90;;;;;;5077068;28;20468;-61
2023/11/18 08:18:02;;;;;;;22.07;16.27;;;5.00;99.90;;;;;;5077811;28;20472;-62
2023/11/18 08:20:30;;;;;;;24.47;15.87;;;5.00;99.90;;;;;;5077986;28;20538;-60
2023/11/18 08:22:59;;;;;;;24.33;16.10;;;5.10;99.90;;;;;;5077995;28;20890;-62
2023/11/18 08:25:26;;;;;;;21.00;15.90;;;5.10;99.90;;;;;;5077536;28;20458;-61
2023/11/18 08:27:54;;;;;;;20.50;15.00;;;5.10;99.90;;;;;;5078290;28;20472;-62
2023/11/18 08:30:21;;;;;;;18.90;13.67;;;5.20;99.90;;;;;;5077810;28;20512;-61
2023/11/18 08:32:52;;;;;;;19.43;15.50;;;5.20;99.90;;;;;;5076714;28;20461;-63
2023/11/18 08:35:21;;;;;;;19.87;15.20;;;5.30;99.90;;;;;;5076980;28;20497;-61
2023/11/18 08:37:48;;;;;;;18.80;14.67;;;5.30;99.90;;;;;;5077314;28;20466;-61
2023/11/18 08:40:21;;;;;;;17.30;13.70;;;5.30;99.90;;;;;;5077701;28;20493;-61
2023/11/18 08:42:50;;;;;;;19.97;14.67;;;5.30;99.90;;;;;;5077792;28;20461;-62
2023/11/18 08:45:18;;;;;;;22.00;13.00;;;5.40;99.90;;;;;;5077695;28;20450;-62
2023/11/18 08:47:47;;;;;;;18.80;13.20;;;5.40;99.90;;;;;;5077402;28;20485;-61
2023/11/18 08:50:16;;;;;;;19.57;13.53;;;5.40;99.90;;;;;;5077652;28;20469;-61
2023/11/18 08:52:46;;;;;;;19.97;13.27;;;5.40;99.90;;;;;;5077204;28;20461;-61
2023/11/18 08:55:17;;;;;;;21.10;14.23;;;5.40;99.90;;;;;;5077204;28;20501;-61
2023/11/18 08:57:58;;;;;;;19.10;13.20;;;5.40;99.90;;;;;;5077057;28;20461;-61
2023/11/18 09:00:47;;;;;;;17.23;12.17;;;5.40;99.90;;;;;;5077330;28;20465;-61
2023/11/18 09:03:24;;;;;;;19.03;12.33;;;5.40;99.90;;;;;;5077780;28;20465;-61
2023/11/18 09:05:58;;;;;;;16.57;11.93;;;5.40;99.90;;;;;;5076336;28;20457;-61
2023/11/18 09:08:27;;;;;;;19.30;13.07;;;5.40;99.90;;;;;;5076925;28;20460;-61
2023/11/18 09:10:55;;;;;;;17.47;13.03;;;5.50;99.90;;;;;;5076650;28;20481;-62
2023/11/18 09:13:28;;;;;;;18.10;13.30;;;5.50;99.90;;;;;;5077459;28;20563;-62
2023/11/18 09:15:57;;;;;;;17.83;12.37;;;5.50;99.90;;;;;;5076761;28;20780;-61
2023/11/18 09:18:24;;;;;;;18.30;13.50;;;5.50;99.90;;;;;;5076185;28;20835;-60
2023/11/18 09:20:54;;;;;;;17.97;12.53;;;5.50;99.90;;;;;;5075931;28;20485;-61
2023/11/18 09:23:23;;;;;;;15.33;10.60;;;5.50;99.90;;;;;;5075671;28;20462;-62
2023/11/18 09:25:50;;;;;;;18.33;12.40;;;5.50;99.90;;;;;;5076128;28;20487;-60
2023/11/18 09:28:18;;;;;;;17.03;12.50;;;5.50;99.90;;;;;;5076554;28;20504;-62
2023/11/18 09:30:53;;;;;;;19.83;12.83;;;5.50;99.90;;;;;;5075392;28;20997;-61
2023/11/18 09:33:32;;;;;;;18.30;11.80;;;5.50;99.90;;;;;;5074714;28;20488;-62
2023/11/18 09:36:00;;;;;;;18.27;12.57;;;5.50;99.90;;;;;;5075218;28;20583;-60
2023/11/18 09:38:31;;;;;;;15.90;11.47;;;5.50;99.90;;;;;;5074938;28;20864;-61
2023/11/18 09:41:02;;;;;;;19.10;11.90;;;5.50;99.90;;;;;;5075551;28;20564;-62
2023/11/18 09:43:32;;;;;;;19.33;11.93;;;5.60;99.90;;;;;;5075585;28;20560;-61
2023/11/18 09:46:08;;;;;;;19.30;13.50;;;5.60;99.90;;;;;;5079580;28;20457;-61
2023/11/18 09:48:40;;;;;;;17.17;11.63;;;5.60;99.90;;;;;;5080388;28;20552;-61
2023/11/18 09:51:09;;;;;;;17.40;11.83;;;5.60;99.90;;;;;;5080841;28;20886;-61
2023/11/18 09:53:40;;;;;;;20.50;12.83;;;5.60;99.90;;;;;;5080486;28;20817;-61
2023/11/18 09:56:18;;;;;;;16.67;11.80;;;5.70;99.90;;;;;;5080907;28;20930;-61
2023/11/18 09:58:54;;;;;;;24.50;13.37;;;5.70;99.90;;;;;;5081082;28;20564;-61
2023/11/18 10:01:27;;;;;;;18.70;12.70;;;5.70;99.90;;;;;;5080207;28;20461;-62
2023/11/18 10:03:58;;;;;;;16.87;12.37;;;5.80;99.90;;;;;;5080394;28;20831;-60
2023/11/18 10:06:28;;;;;;;15.83;11.90;;;5.80;99.90;;;;;;5080131;28;20491;-61
2023/11/18 10:08:56;;;;;;;14.93;11.97;;;5.90;99.90;;;;;;5080323;28;20460;-62
2023/11/18 10:11:23;;;;;;;18.97;13.27;;;5.90;99.90;;;;;;5080057;28;20489;-61
2023/11/18 10:13:51;;;;;;;15.50;11.10;;;6.10;99.90;;;;;;5080361;28;20460;-62
2023/11/18 10:16:18;;;;;;;15.10;10.30;;;6.20;99.90;;;;;;5080173;28;20489;-62
2023/11/18 10:18:51;;;;;;;17.70;11.07;;;6.30;99.90;;;;;;5079736;28;20457;-61
2023/11/18 10:21:39;;;;;;;16.87;11.30;;;6.40;99.90;;;;;;5079913;28;20463;-61
2023/11/18 10:24:14;;;;;;;12.50;9.67;;;6.60;99.90;;;;;;5078608;28;20461;-62
2023/11/18 10:26:45;;;;;;;13.53;10.30;;;6.60;99.90;;;;;;5078764;28;20514;-61
2023/11/18 10:29:13;;;;;;;14.17;11.10;;;6.70;99.90;;;;;;5077523;28;20464;-62
2023/11/18 10:31:45;;;;;;;13.73;11.00;;;6.60;99.90;;;;;;5077840;28;20457;-61
2023/11/18 10:34:16;;;;;;;12.63;9.83;;;6.60;99.90;;;;;;5078475;28;20488;-62
2023/11/18 10:36:59;;;;;;;13.87;10.20;;;6.60;88.20;;;;;;5078484;28;20485;-61
2023/11/18 10:39:31;;;;;;;13.07;10.60;;;6.60;1.00;;;;;;5079246;28;20457;-61
2023/11/18 10:42:01;;;;;;;14.93;9.40;;;6.60;1.00;;;;;;5080023;28;20894;-61
2023/11/18 10:44:29;;;;;;;13.83;8.87;;;6.70;83.60;;;;;;5080105;28;20551;-61
2023/11/18 10:46:58;;;;;;;12.40;9.20;;;6.70;1.00;;;;;;5079808;28;20424;-62
2023/11/18 10:49:28;;;;;;;14.63;11.20;;;6.80;99.90;;;;;;5079022;28;20507;-61
2023/11/18 10:51:57;;;;;;;13.10;9.87;;;6.80;1.00;;;;;;5079190;28;20957;-61
2023/11/18 10:54:26;;;;;;;12.87;9.00;;;6.80;1.00;;;;;;5079504;28;20458;-61
2023/11/18 10:56:56;;;;;;;13.23;10.83;;;6.90;99.90;;;;;;5078836;28;20575;-62
2023/11/18 10:59:27;;;;;;;11.13;9.10;;;6.90;1.00;;;;;;5079369;28;20460;-61
2023/11/18 11:01:57;;;;;;;13.70;8.63;;;6.90;99.90;;;;;;5079474;28;20486;-61
2023/11/18 11:04:25;;;;;;;11.60;9.43;;;6.90;99.90;;;;;;5079526;28;20908;-61
2023/11/18 11:06:56;;;;;;;17.17;9.80;;;6.90;99.90;;;;;;5078881;28;20493;-63
2023/11/18 11:09:27;;;;;;;12.47;9.03;;;7.00;18.80;;;;;;5078219;28;20858;-62
2023/11/18 11:11:59;;;;;;;13.40;9.33;;;7.00;1.00;;;;;;5079143;28;20806;-62
2023/11/18 11:14:35;;;;;;;13.67;9.43;;;7.00;1.00;;;;;;5079416;28;20555;-61
2023/11/18 11:17:11;;;;;;;17.63;10.87;;;7.10;1.00;;;;;;5079146;28;20929;-61
2023/11/18 11:19:48;;;;;;;11.70;8.50;;;7.10;99.90;;;;;;5079085;28;20900;-61
2023/11/18 11:22:24;;;;;;;22.17;10.80;;;7.00;99.90;;;;;;5079127;28;20563;-61
2023/11/18 11:25:02;;;;;;;15.40;11.80;;;7.00;99.90;;;;;;5079053;28;20559;-62
2023/11/18 11:27:39;;;;;;;11.37;9.00;;;7.00;53.70;;;;;;5078840;28;20889;-60
2023/11/18 11:30:18;;;;;;;15.00;9.67;;;7.00;1.00;;;;;;5079315;28;20468;-61
2023/11/18 11:32:51;;;;;;;11.40;8.70;;;7.00;1.00;;;;;;5078574;28;20461;-62
2023/11/18 11:35:24;;;;;;;11.20;9.33;;;6.90;1.00;;;;;;5078475;28;20461;-61
2023/11/18 11:38:02;;;;;;;12.33;9.07;;;6.90;1.00;;;;;;5079096;28;20465;-62
2023/11/18 11:40:31;;;;;;;12.60;9.20;;;7.00;1.00;;;;;;5079052;28;20461;-62
2023/11/18 11:43:01;;;;;;;13.27;9.90;;;7.00;1.00;;;;;;5078153;28;20898;-61
2023/11/18 11:45:30;;;;;;;14.43;9.27;;;7.00;35.70;;;;;;5078516;28;20959;-61
2023/11/18 11:48:13;;;;;;;11.00;8.50;;;7.00;99.90;;;;;;5078524;28;20461;-61
2023/11/18 11:50:56;;;;;;;9.50;8.23;;;7.10;99.90;;;;;;5078956;28;20457;-61
2023/11/18 11:53:31;;;;;;;11.87;9.17;;;7.00;99.90;;;;;;5078398;28;20800;-63
2023/11/18 11:56:06;;;;;;;12.23;9.90;;;7.00;99.90;;;;;;5078133;28;20829;-64
2023/11/18 11:58:37;;;;;;;14.20;9.60;;;7.10;1.00;;;;;;5078633;28;20463;-64
2023/11/18 12:01:19;;;;;;;10.87;8.30;;;7.10;40.20;;;;;;5078075;28;20488;-63
2023/11/18 12:03:49;;;;;;;13.17;9.07;;;7.10;99.90;;;;;;5078216;28;20457;-65
2023/11/18 12:06:23;;;;;;;11.60;8.50;;;7.10;99.90;;;;;;5077963;28;20788;-64
2023/11/18 12:08:53;;;;;;;12.60;8.37;;;7.20;99.90;;;;;;5077809;28;20563;-64
2023/11/18 12:11:22;;;;;;;12.70;9.23;;;7.20;99.90;;;;;;5077918;28;20461;-65
2023/11/18 12:14:12;;;;;;;12.73;9.30;;;7.20;99.90;;;;;;5078290;28;20870;-66
2023/11/18 12:17:00;;;;;;;11.43;6.90;;;7.20;99.90;;;;;;5077889;28;20490;-66
2023/11/18 12:19:36;;;;;;;10.90;8.23;;;7.20;1.00;;;;;;5076952;28;20468;-67
2023/11/18 12:22:12;;;;;;;10.03;7.90;;;7.20;1.00;;;;;;5077274;28;20461;-66
2023/11/18 12:24:43;;;;;;;10.33;8.20;;;7.20;1.00;;;;;;5076327;28;20461;-67
2023/11/18 12:27:13;;;;;;;12.53;8.63;;;7.30;1.00;;;;;;5076416;28;20801;-65
2023/11/18 12:29:44;;;;;;;10.53;8.80;;;7.30;32.30;;;;;;5076104;28;20515;-66
2023/11/18 12:32:16;;;;;;;10.63;7.57;;;7.30;35.20;;;;;;5077324;28;20514;-66
2023/11/18 12:34:53;;;;;;;10.23;7.87;;;7.20;65.60;;;;;;5077889;28;20878;-65
2023/11/18 12:37:50;;;;;;;9.17;6.77;;;7.20;99.90;;;;;;5077138;28;20492;-67
2023/11/18 12:40:51;;;;;;;8.70;7.07;;;7.20;99.90;;;;;;5050772;28;20522;-67
2023/11/18 12:43:23;;;;;;;11.83;7.53;;;7.10;99.90;;;;;;5077708;28;20887;-66
2023/11/18 12:46:37;;;;;;;10.90;7.97;;;7.10;99.90;;;;;;5077281;28;20504;-66
2023/11/18 12:49:04;;;;;;;12.03;8.67;;;7.10;99.90;;;;;;5056158;28;20489;-66
2023/11/18 12:51:36;;;;;;;14.87;9.67;;;7.10;99.90;;;;;;5075885;28;20464;-67